Time;durP1;ratioP1;P1;durP2;ratioP2;P2;SDS_P1;SDS_P2;PMS_P1;PMS_P2;Temp;Humidity;BMP_temperature;BMP_pressure;BME280_temperature;BME280_humidity;BME280_pressure;Samples;Min_cycle;Max_cycle;Signal;HPM_P1;HPM_P2
2022/06/24 00:00:33;;;;;;;;;;;28.40;97.00;;;;;;5092510;28;19923;-77
2022/06/24 00:03:01;;;;;;;;;;;28.50;97.00;;;;;;5059911;28;19923;-76
2022/06/24 00:05:29;;;;;;;;;;;28.50;96.90;;;;;;5093293;28;19977;-76
2022/06/24 00:07:56;;;;;;;;;;;28.50;96.80;;;;;;5092832;28;20018;-77
2022/06/24 00:10:28;;;;;;;;;;;28.40;96.80;;;;;;5111992;28;20475;-78
2022/06/24 00:12:56;;;;;;;;;;;28.40;96.80;;;;;;5076510;28;19970;-76
2022/06/24 00:15:31;;;;;;;;;;;28.40;96.70;;;;;;5093332;28;20359;-77
2022/06/24 00:18:10;;;;;;;;;;;28.40;96.70;;;;;;5077033;28;20616;-77
2022/06/24 00:20:45;;;;;;;;;;;28.40;96.80;;;;;;5111375;28;20027;-77
2022/06/24 00:23:15;;;;;;;;;;;28.40;96.80;;;;;;5111325;28;19923;-78
2022/06/24 00:25:43;;;;;;;;;;;28.40;96.90;;;;;;5111349;28;19966;-77
2022/06/24 00:28:11;;;;;;;;;;;28.40;97.00;;;;;;5093604;28;19920;-76
2022/06/24 00:30:58;;;;;;;;;;;28.30;96.90;;;;;;5092958;28;19919;-77
2022/06/24 00:33:31;;;;;;;;;;;28.30;97.00;;;;;;5093041;28;19923;-77
2022/06/24 00:35:59;;;;;;;;;;;28.30;97.00;;;;;;5093498;28;19966;-76
2022/06/24 00:38:27;;;;;;;;;;;28.30;96.90;;;;;;5093178;28;19969;-76
2022/06/24 00:40:56;;;;;;;;;;;28.30;97.00;;;;;;5093013;28;20038;-76
2022/06/24 00:43:29;;;;;;;;;;;28.30;96.90;;;;;;5110238;28;20014;-77
2022/06/24 00:46:05;;;;;;;;;;;28.30;97.00;;;;;;5076556;28;20437;-77
2022/06/24 00:48:34;;;;;;;;;;;28.30;97.10;;;;;;5060208;28;19981;-78
2022/06/24 00:51:01;;;;;;;;;;;28.30;97.20;;;;;;5075946;28;19969;-77
2022/06/24 00:53:29;;;;;;;;;;;28.30;97.20;;;;;;5092599;28;20414;-76
2022/06/24 00:55:56;;;;;;;;;;;28.30;97.30;;;;;;5076456;28;19923;-76
2022/06/24 00:58:24;;;;;;;;;;;28.30;97.40;;;;;;5092994;28;19924;-77
2022/06/24 01:00:51;;;;;;;;;;;28.30;97.40;;;;;;5109128;28;20010;-76
2022/06/24 01:03:19;;;;;;;;;;;28.30;97.50;;;;;;5093321;28;19920;-77
2022/06/24 01:05:46;;;;;;;;;;;28.30;97.50;;;;;;5109705;28;20373;-77
2022/06/24 01:08:14;;;;;;;;;;;28.30;97.40;;;;;;5075285;28;19920;-76
2022/06/24 01:10:47;;;;;;;;;;;28.30;97.40;;;;;;5092798;28;20041;-77
2022/06/24 01:13:14;;;;;;;;;;;28.20;97.20;;;;;;5093961;28;20039;-76
2022/06/24 01:15:42;;;;;;;;;;;28.30;97.20;;;;;;5078795;28;20043;-76
2022/06/24 01:18:09;;;;;;;;;;;28.20;97.10;;;;;;5095512;28;19926;-76
2022/06/24 01:20:37;;;;;;;;;;;28.30;96.70;;;;;;5114810;28;19924;-78
2022/06/24 01:23:06;;;;;;;;;;;28.30;96.50;;;;;;5079768;28;19956;-76
2022/06/24 01:25:34;;;;;;;;;;;28.30;96.60;;;;;;5096178;28;19919;-76
2022/06/24 01:28:01;;;;;;;;;;;28.30;96.70;;;;;;5079738;28;20029;-76
2022/06/24 01:30:29;;;;;;;;;;;28.30;96.70;;;;;;5079697;28;19969;-77
2022/06/24 01:32:56;;;;;;;;;;;28.30;96.80;;;;;;5096316;28;19924;-76
2022/06/24 01:35:23;;;;;;;;;;;28.30;96.80;;;;;;5096424;28;19973;-76
2022/06/24 01:37:51;;;;;;;;;;;28.30;96.90;;;;;;5096531;28;19965;-76
2022/06/24 01:40:19;;;;;;;;;;;28.30;97.00;;;;;;5114566;28;20682;-78
2022/06/24 01:42:46;;;;;;;;;;;28.30;97.10;;;;;;5096499;28;20377;-76
2022/06/24 01:45:14;;;;;;;;;;;28.30;97.30;;;;;;5095877;28;20274;-77
2022/06/24 01:47:41;;;;;;;;;;;28.30;97.40;;;;;;5095930;28;20340;-76
2022/06/24 01:50:08;;;;;;;;;;;28.30;97.50;;;;;;5096659;28;20018;-76
2022/06/24 01:52:36;;;;;;;;;;;28.30;97.50;;;;;;5114548;28;20385;-76
2022/06/24 01:55:04;;;;;;;;;;;28.30;97.60;;;;;;5078551;28;19920;-76
2022/06/24 01:57:31;;;;;;;;;;;28.20;97.60;;;;;;5078960;28;20022;-77
2022/06/24 02:00:00;;;;;;;;;;;28.20;97.70;;;;;;5113188;28;20343;-76
2022/06/24 02:02:30;;;;;;;;;;;28.20;97.70;;;;;;5114262;28;20361;-76
2022/06/24 02:04:58;;;;;;;;;;;28.20;97.90;;;;;;5095968;28;20369;-76
2022/06/24 02:07:25;;;;;;;;;;;28.20;97.80;;;;;;5113884;28;19924;-78
2022/06/24 02:15:24;;;;;;;;;;;28.00;97.10;;;;;;5113973;28;19923;-77
2022/06/24 02:17:51;;;;;;;;;;;28.00;96.90;;;;;;5082399;28;20389;-76
2022/06/24 02:20:19;;;;;;;;;;;28.00;96.80;;;;;;5074555;28;20018;-76
2022/06/24 02:22:46;;;;;;;;;;;27.90;96.60;;;;;;5075308;28;19928;-76
2022/06/24 02:25:14;;;;;;;;;;;27.90;96.50;;;;;;5093191;28;19924;-76
2022/06/24 02:27:41;;;;;;;;;;;27.90;96.30;;;;;;5093498;28;19928;-76
2022/06/24 02:30:09;;;;;;;;;;;27.90;96.10;;;;;;5093437;28;19977;-76
2022/06/24 02:32:36;;;;;;;;;;;27.90;96.10;;;;;;5059022;28;19950;-77
2022/06/24 02:35:06;;;;;;;;;;;27.90;96.20;;;;;;5074956;28;20077;-76
2022/06/24 02:37:33;;;;;;;;;;;27.80;96.40;;;;;;5075136;28;20293;-76
2022/06/24 02:40:45;;;;;;;;;;;27.80;96.50;;;;;;5042068;28;19927;-76
2022/06/24 02:42:52;;;;;;;;;;;27.80;96.60;;;;;;5074989;28;19943;-78
2022/06/24 02:45:20;;;;;;;;;;;27.80;96.70;;;;;;5091995;28;19924;-77
2022/06/24 02:47:47;;;;;;;;;;;27.80;96.90;;;;;;5058698;28;19924;-77
2022/06/24 02:50:15;;;;;;;;;;;27.80;96.90;;;;;;5075030;28;19963;-76
2022/06/24 02:52:43;;;;;;;;;;;27.80;96.90;;;;;;5074362;28;20289;-76
2022/06/24 02:55:10;;;;;;;;;;;27.80;97.00;;;;;;5074663;28;19924;-76
2022/06/24 02:57:37;;;;;;;;;;;27.80;97.10;;;;;;5074894;28;19924;-76
2022/06/24 03:00:05;;;;;;;;;;;27.80;97.20;;;;;;5074551;28;19982;-76
2022/06/24 03:02:32;;;;;;;;;;;27.80;97.10;;;;;;5072058;28;19920;-76
2022/06/24 03:05:00;;;;;;;;;;;27.80;97.10;;;;;;5113027;28;19926;-76
2022/06/24 03:07:27;;;;;;;;;;;27.80;97.20;;;;;;5094953;28;19926;-76
2022/06/24 03:09:55;;;;;;;;;;;27.80;97.30;;;;;;5111028;28;19929;-76
2022/06/24 03:12:22;;;;;;;;;;;27.80;97.30;;;;;;5092269;28;19924;-80
2022/06/24 03:14:49;;;;;;;;;;;27.80;97.30;;;;;;5112789;28;19920;-75
2022/06/24 03:17:17;;;;;;;;;;;27.80;97.40;;;;;;5078065;28;20297;-76
2022/06/24 03:19:44;;;;;;;;;;;27.80;97.30;;;;;;5094720;28;20014;-76
2022/06/24 03:22:11;;;;;;;;;;;27.80;97.30;;;;;;5094027;28;20018;-75
2022/06/24 03:24:40;;;;;;;;;;;27.80;97.20;;;;;;5094743;28;19998;-77
2022/06/24 03:27:07;;;;;;;;;;;27.80;97.20;;;;;;5076967;28;19923;-76
2022/06/24 03:29:35;;;;;;;;;;;27.80;97.30;;;;;;5077052;28;20270;-77
2022/06/24 03:32:02;;;;;;;;;;;27.80;97.30;;;;;;5112504;28;20323;-77
2022/06/24 03:34:29;;;;;;;;;;;27.80;97.30;;;;;;5094755;28;20266;-76
2022/06/24 03:36:57;;;;;;;;;;;27.70;97.30;;;;;;5111363;28;19934;-76
2022/06/24 03:39:24;;;;;;;;;;;27.80;97.40;;;;;;5077714;28;19958;-76
2022/06/24 03:41:51;;;;;;;;;;;27.80;97.50;;;;;;5077283;28;19930;-77
2022/06/24 03:44:19;;;;;;;;;;;27.80;97.50;;;;;;5112535;28;20025;-78
2022/06/24 03:46:46;;;;;;;;;;;27.70;97.50;;;;;;5093527;28;20391;-76
2022/06/24 03:49:15;;;;;;;;;;;27.70;97.60;;;;;;5111294;28;19959;-77
2022/06/24 03:51:42;;;;;;;;;;;27.70;97.60;;;;;;5093822;28;19998;-76
2022/06/24 03:54:10;;;;;;;;;;;27.70;97.70;;;;;;5077195;28;19931;-77
2022/06/24 03:56:37;;;;;;;;;;;27.80;98.00;;;;;;5094424;28;19924;-76
2022/06/24 03:59:08;;;;;;;;;;;27.80;97.80;;;;;;5077492;28;20331;-77
2022/06/24 04:01:35;;;;;;;;;;;27.90;97.80;;;;;;5076661;28;19920;-76
2022/06/24 04:04:02;;;;;;;;;;;27.90;97.80;;;;;;5076993;28;20406;-77
2022/06/24 04:06:30;;;;;;;;;;;27.90;97.80;;;;;;5094147;28;19959;-75
2022/06/24 04:08:58;;;;;;;;;;;27.90;97.80;;;;;;5076459;28;19924;-77
2022/06/24 04:11:25;;;;;;;;;;;27.90;97.80;;;;;;5094097;28;20292;-77
2022/06/24 04:13:52;;;;;;;;;;;28.00;98.00;;;;;;5076839;28;20378;-78
2022/06/24 04:16:20;;;;;;;;;;;28.00;97.80;;;;;;5094255;28;19919;-75
2022/06/24 04:18:48;;;;;;;;;;;28.00;97.70;;;;;;5076814;28;19969;-75
2022/06/24 04:21:16;;;;;;;;;;;28.10;97.70;;;;;;5093682;28;20412;-76
2022/06/24 04:23:44;;;;;;;;;;;28.10;97.60;;;;;;5093108;28;19965;-76
2022/06/24 04:26:11;;;;;;;;;;;28.20;97.60;;;;;;5076945;28;20438;-77
2022/06/24 04:28:39;;;;;;;;;;;28.20;97.50;;;;;;5092989;28;20444;-77
2022/06/24 04:31:06;;;;;;;;;;;28.30;97.50;;;;;;5075495;28;19977;-77
2022/06/24 04:33:33;;;;;;;;;;;28.40;97.50;;;;;;5111757;28;19942;-75
2022/06/24 04:36:01;;;;;;;;;;;28.50;97.40;;;;;;5111491;28;19927;-76
2022/06/24 04:38:28;;;;;;;;;;;28.50;97.30;;;;;;5093374;28;20379;-77
2022/06/24 04:40:55;;;;;;;;;;;28.60;97.20;;;;;;5111162;28;19971;-76
2022/06/24 04:43:23;;;;;;;;;;;28.60;97.20;;;;;;5093073;28;20025;-76
2022/06/24 04:45:50;;;;;;;;;;;28.60;97.20;;;;;;5093221;28;20369;-77
2022/06/24 04:48:18;;;;;;;;;;;28.60;97.10;;;;;;5110498;28;20353;-77
2022/06/24 04:50:45;;;;;;;;;;;28.70;97.10;;;;;;5076696;28;20014;-76
2022/06/24 04:53:12;;;;;;;;;;;28.60;96.90;;;;;;5075906;28;19949;-76
2022/06/24 04:55:40;;;;;;;;;;;28.60;97.30;;;;;;5091967;28;20017;-77
2022/06/24 04:58:07;;;;;;;;;;;28.60;97.20;;;;;;5092731;28;20300;-77
2022/06/24 05:00:34;;;;;;;;;;;28.80;97.20;;;;;;5059849;28;19934;-76
2022/06/24 05:03:02;;;;;;;;;;;29.00;97.20;;;;;;5110917;28;20441;-76
2022/06/24 05:05:29;;;;;;;;;;;29.10;96.90;;;;;;5090797;28;19920;-76
2022/06/24 05:07:56;;;;;;;;;;;29.30;96.50;;;;;;5093258;28;19924;-76
2022/06/24 05:10:24;;;;;;;;;;;29.50;96.40;;;;;;5092834;28;20385;-76
2022/06/24 05:12:51;;;;;;;;;;;29.70;95.90;;;;;;5092589;28;19919;-77
2022/06/24 05:15:18;;;;;;;;;;;29.80;95.40;;;;;;5086317;28;20419;-77
2022/06/24 05:17:46;;;;;;;;;;;29.90;95.00;;;;;;5092479;28;20385;-77
2022/06/24 05:20:13;;;;;;;;;;;29.90;94.30;;;;;;5076102;28;19979;-76
2022/06/24 05:22:41;;;;;;;;;;;29.90;94.10;;;;;;5109953;28;19967;-78
2022/06/24 05:25:08;;;;;;;;;;;29.90;94.10;;;;;;5109876;28;19924;-76
2022/06/24 05:27:35;;;;;;;;;;;30.00;93.70;;;;;;5092849;28;19966;-78
2022/06/24 05:30:03;;;;;;;;;;;30.20;92.90;;;;;;5109742;28;20694;-76
2022/06/24 05:32:31;;;;;;;;;;;30.30;92.20;;;;;;5111245;28;19959;-77
2022/06/24 05:34:58;;;;;;;;;;;30.40;92.10;;;;;;5092382;28;20022;-77
2022/06/24 05:37:25;;;;;;;;;;;30.50;92.20;;;;;;5092670;28;20117;-77
2022/06/24 05:39:53;;;;;;;;;;;30.50;91.70;;;;;;5091055;28;19926;-76
2022/06/24 05:42:20;;;;;;;;;;;30.60;91.00;;;;;;5109036;28;19923;-77
2022/06/24 05:44:48;;;;;;;;;;;30.60;90.40;;;;;;5108972;28;19931;-76
2022/06/24 05:47:15;;;;;;;;;;;30.60;90.50;;;;;;5092720;28;19950;-77
2022/06/24 05:49:42;;;;;;;;;;;30.60;90.40;;;;;;5092682;28;19970;-76
2022/06/24 05:52:10;;;;;;;;;;;30.50;89.70;;;;;;5109499;28;19930;-77
2022/06/24 05:57:23;;;;;;;;;;;30.40;88.80;;;;;;5109438;28;20046;-76
2022/06/24 05:59:50;;;;;;;;;;;30.60;88.40;;;;;;5077398;28;19927;-78
2022/06/24 06:02:20;;;;;;;;;;;30.60;88.30;;;;;;5112875;28;19928;-77
2022/06/24 06:04:49;;;;;;;;;;;30.90;88.40;;;;;;5114403;28;19928;-77
2022/06/24 06:07:16;;;;;;;;;;;31.10;87.90;;;;;;5113168;28;20292;-76
2022/06/24 06:09:44;;;;;;;;;;;31.40;86.90;;;;;;5114590;28;19920;-76
2022/06/24 06:12:11;;;;;;;;;;;31.60;86.40;;;;;;5114206;28;19924;-76
2022/06/24 06:14:39;;;;;;;;;;;31.80;85.90;;;;;;5095690;28;19927;-76
2022/06/24 06:17:07;;;;;;;;;;;32.00;85.30;;;;;;5112712;28;19973;-77
2022/06/24 06:19:35;;;;;;;;;;;32.20;84.10;;;;;;5113160;28;19977;-78
2022/06/24 06:22:03;;;;;;;;;;;32.50;84.00;;;;;;5095378;28;19920;-76
2022/06/24 06:24:30;;;;;;;;;;;32.70;82.80;;;;;;5096007;28;19924;-76
2022/06/24 06:26:58;;;;;;;;;;;32.80;82.40;;;;;;5111905;28;20285;-76
2022/06/24 06:29:25;;;;;;;;;;;32.90;82.10;;;;;;5113883;28;19924;-77
2022/06/24 06:31:53;;;;;;;;;;;32.90;81.80;;;;;;5113162;28;19923;-77
2022/06/24 06:34:20;;;;;;;;;;;32.80;81.30;;;;;;5113851;28;19924;-76
2022/06/24 06:36:48;;;;;;;;;;;32.70;82.10;;;;;;5112072;28;19930;-76
2022/06/24 06:39:15;;;;;;;;;;;32.80;82.00;;;;;;5111964;28;20270;-76
2022/06/24 06:41:46;;;;;;;;;;;32.70;81.20;;;;;;5091172;28;19943;-76
2022/06/24 06:44:17;;;;;;;;;;;32.80;81.50;;;;;;5075009;28;19920;-77
2022/06/24 06:46:44;;;;;;;;;;;32.80;80.40;;;;;;5075598;28;19927;-77
2022/06/24 06:49:12;;;;;;;;;;;32.90;80.40;;;;;;5074831;28;19969;-76
2022/06/24 06:51:39;;;;;;;;;;;33.00;80.40;;;;;;5091597;28;19928;-77
2022/06/24 06:54:07;;;;;;;;;;;33.00;80.70;;;;;;5091657;28;19928;-76
2022/06/24 06:56:34;;;;;;;;;;;33.10;79.70;;;;;;5091687;28;19930;-76
2022/06/24 06:59:02;;;;;;;;;;;33.20;78.50;;;;;;5074831;28;19950;-77
2022/06/24 07:01:29;;;;;;;;;;;33.40;78.80;;;;;;5091792;28;20286;-79
2022/06/24 07:03:57;;;;;;;;;;;33.50;77.10;;;;;;5058383;28;19923;-76
2022/06/24 07:06:24;;;;;;;;;;;33.50;76.70;;;;;;5091928;28;20298;-77
2022/06/24 07:08:52;;;;;;;;;;;33.60;75.80;;;;;;5091363;28;19930;-77
2022/06/24 07:11:19;;;;;;;;;;;33.80;75.00;;;;;;5091742;28;20011;-77
2022/06/24 07:13:47;;;;;;;;;;;34.00;75.10;;;;;;5092349;28;20439;-77
2022/06/24 07:16:14;;;;;;;;;;;34.10;74.80;;;;;;5091428;28;19931;-77
2022/06/24 07:18:42;;;;;;;;;;;34.20;74.00;;;;;;5092642;28;20018;-78
2022/06/24 07:21:11;;;;;;;;;;;34.30;73.10;;;;;;5091103;28;19951;-78
2022/06/24 07:23:39;;;;;;;;;;;34.30;71.90;;;;;;5057431;28;19981;-77
2022/06/24 07:26:06;;;;;;;;;;;34.30;72.60;;;;;;5092374;28;20007;-76
2022/06/24 07:28:34;;;;;;;;;;;34.40;71.60;;;;;;5074357;28;19924;-78
2022/06/24 07:31:11;;;;;;;;;;;34.50;69.90;;;;;;5074160;28;19926;-75
2022/06/24 07:33:38;;;;;;;;;;;34.60;69.10;;;;;;5092028;28;19930;-77
2022/06/24 07:36:05;;;;;;;;;;;34.70;68.90;;;;;;5074099;28;20037;-75
2022/06/24 07:38:33;;;;;;;;;;;34.70;68.20;;;;;;5057819;28;19923;-76
2022/06/24 07:41:00;;;;;;;;;;;34.80;68.10;;;;;;5075541;28;19919;-76
2022/06/24 07:43:28;;;;;;;;;;;34.90;68.90;;;;;;5040990;28;19924;-77
2022/06/24 07:45:56;;;;;;;;;;;35.00;68.10;;;;;;5092251;28;19931;-77
2022/06/24 07:48:24;;;;;;;;;;;35.00;68.20;;;;;;5090762;28;19920;-78
2022/06/24 07:50:51;;;;;;;;;;;35.10;68.60;;;;;;5091851;28;19924;-78
2022/06/24 07:53:19;;;;;;;;;;;35.20;68.30;;;;;;5073967;28;19924;-75
2022/06/24 07:58:32;;;;;;;;;;;35.10;68.60;;;;;;5073991;28;19927;-77
2022/06/24 08:01:01;;;;;;;;;;;35.00;68.90;;;;;;5057218;28;20388;-77
2022/06/24 08:03:28;;;;;;;;;;;34.80;68.30;;;;;;5091567;28;19973;-78
2022/06/24 08:05:55;;;;;;;;;;;34.80;68.30;;;;;;5073554;28;19943;-78
2022/06/24 08:08:23;;;;;;;;;;;34.70;68.00;;;;;;5073523;28;20276;-76
2022/06/24 08:10:50;;;;;;;;;;;34.80;68.30;;;;;;5073314;28;20289;-80
2022/06/24 08:13:18;;;;;;;;;;;34.90;67.30;;;;;;5089994;28;20267;-77
2022/06/24 08:15:45;;;;;;;;;;;35.00;66.80;;;;;;5073229;28;19920;-77
2022/06/24 08:18:12;;;;;;;;;;;35.10;66.70;;;;;;5073251;28;20380;-77
2022/06/24 08:20:40;;;;;;;;;;;35.20;66.90;;;;;;5091167;28;19926;-77
2022/06/24 08:23:07;;;;;;;;;;;35.20;66.00;;;;;;5073293;28;19924;-77
2022/06/24 08:25:35;;;;;;;;;;;35.30;66.10;;;;;;5072663;28;19943;-78
2022/06/24 08:28:04;;;;;;;;;;;35.40;66.10;;;;;;5072559;28;20546;-77
2022/06/24 08:30:31;;;;;;;;;;;35.60;66.40;;;;;;5090536;28;19963;-78
2022/06/24 08:32:58;;;;;;;;;;;35.70;66.30;;;;;;5086581;28;20386;-77
2022/06/24 08:35:26;;;;;;;;;;;35.80;66.90;;;;;;5110616;28;19978;-77
2022/06/24 08:37:55;;;;;;;;;;;35.80;66.30;;;;;;5092823;28;19927;-78
2022/06/24 08:40:24;;;;;;;;;;;35.80;65.90;;;;;;5111574;28;20452;-78
2022/06/24 08:42:55;;;;;;;;;;;35.80;65.90;;;;;;5076526;28;19930;-77
2022/06/24 08:45:23;;;;;;;;;;;35.80;65.40;;;;;;5093410;28;19919;-77
2022/06/24 08:47:50;;;;;;;;;;;35.80;65.50;;;;;;5111111;28;20284;-80
2022/06/24 08:50:18;;;;;;;;;;;35.90;65.10;;;;;;5076887;28;19989;-77
2022/06/24 08:52:50;;;;;;;;;;;35.90;64.90;;;;;;5093293;28;19923;-79
2022/06/24 08:55:21;;;;;;;;;;;36.00;65.30;;;;;;5111257;28;19924;-78
2022/06/24 08:57:49;;;;;;;;;;;35.90;65.10;;;;;;5076509;28;19935;-79
2022/06/24 09:00:18;;;;;;;;;;;36.00;65.00;;;;;;5092697;28;19926;-77
2022/06/24 09:02:46;;;;;;;;;;;36.00;64.40;;;;;;5111061;28;19919;-77
2022/06/24 09:05:14;;;;;;;;;;;35.90;64.10;;;;;;5093110;28;20017;-77
2022/06/24 09:07:42;;;;;;;;;;;36.00;65.10;;;;;;5111070;28;20052;-77
2022/06/24 09:10:11;;;;;;;;;;;35.90;63.90;;;;;;5111250;28;19923;-76
2022/06/24 09:12:40;;;;;;;;;;;35.90;64.20;;;;;;5110550;28;19930;-77
2022/06/24 09:15:09;;;;;;;;;;;35.90;65.30;;;;;;5110680;28;19920;-77
2022/06/24 09:17:37;;;;;;;;;;;35.90;64.80;;;;;;5110950;28;19931;-77
2022/06/24 09:20:15;;;;;;;;;;;35.90;65.00;;;;;;5093030;28;19978;-78
2022/06/24 09:23:05;;;;;;;;;;;35.90;64.30;;;;;;5106598;28;19976;-77
2022/06/24 09:25:48;;;;;;;;;;;36.00;64.40;;;;;;5092603;28;20381;-77
2022/06/24 09:28:23;;;;;;;;;;;36.00;64.50;;;;;;5093328;28;20396;-77
2022/06/24 09:30:58;;;;;;;;;;;36.00;63.60;;;;;;5110936;28;19920;-82
2022/06/24 09:33:26;;;;;;;;;;;36.00;63.70;;;;;;5058822;28;19929;-77
2022/06/24 09:36:01;;;;;;;;;;;36.00;63.60;;;;;;5097525;28;19919;-76
2022/06/24 09:38:29;;;;;;;;;;;36.00;63.50;;;;;;5096614;28;19931;-77
2022/06/24 09:41:01;;;;;;;;;;;36.00;63.00;;;;;;5062603;28;19931;-77
2022/06/24 09:43:30;;;;;;;;;;;36.10;63.40;;;;;;5096259;28;19924;-77
2022/06/24 09:45:58;;;;;;;;;;;36.10;63.00;;;;;;5096584;28;19924;-78
2022/06/24 09:48:27;;;;;;;;;;;36.00;62.90;;;;;;5062691;28;20002;-78
2022/06/24 09:51:01;;;;;;;;;;;36.10;63.40;;;;;;5114194;28;20373;-77
2022/06/24 09:53:35;;;;;;;;;;;36.20;63.40;;;;;;5096516;28;19927;-78
2022/06/24 09:56:07;;;;;;;;;;;36.20;62.90;;;;;;5062653;28;19995;-77
2022/06/24 09:58:35;;;;;;;;;;;36.20;63.00;;;;;;5096357;28;20323;-77
2022/06/24 10:01:03;;;;;;;;;;;36.30;63.40;;;;;;5095932;28;19926;-78
2022/06/24 10:03:32;;;;;;;;;;;36.20;63.10;;;;;;5096208;28;20373;-78
2022/06/24 10:06:01;;;;;;;;;;;36.30;63.20;;;;;;5096107;28;19931;-78
2022/06/24 10:08:32;;;;;;;;;;;36.30;62.90;;;;;;5078768;28;19958;-77
2022/06/24 10:11:12;;;;;;;;;;;36.40;63.10;;;;;;5114468;28;19924;-78
2022/06/24 10:13:39;;;;;;;;;;;36.40;63.10;;;;;;5095177;28;20396;-77
2022/06/24 10:16:07;;;;;;;;;;;36.40;63.10;;;;;;5061735;28;19973;-77
2022/06/24 10:18:43;;;;;;;;;;;36.50;62.60;;;;;;5095722;28;19924;-77
2022/06/24 10:21:12;;;;;;;;;;;36.50;62.40;;;;;;5078837;28;20368;-77
2022/06/24 10:23:43;;;;;;;;;;;36.50;62.80;;;;;;5079108;28;20487;-78
2022/06/24 10:26:31;;;;;;;;;;;36.60;62.80;;;;;;5095680;28;19930;-78
2022/06/24 10:28:59;;;;;;;;;;;36.70;62.60;;;;;;5095458;28;19923;-77
2022/06/24 10:31:41;;;;;;;;;;;36.60;62.10;;;;;;5095627;28;19923;-79
2022/06/24 10:34:09;;;;;;;;;;;36.50;62.70;;;;;;5112545;28;20466;-78
2022/06/24 10:36:37;;;;;;;;;;;36.40;62.80;;;;;;5078284;28;20353;-77
2022/06/24 10:39:10;;;;;;;;;;;36.40;62.90;;;;;;5112464;28;20392;-77
2022/06/24 10:41:39;;;;;;;;;;;36.50;62.90;;;;;;5113497;28;19924;-75
2022/06/24 10:44:23;;;;;;;;;;;36.50;62.50;;;;;;5095404;28;19923;-81
2022/06/24 10:47:14;;;;;;;;;;;36.20;62.80;;;;;;5076958;28;19954;-78
2022/06/24 10:49:54;;;;;;;;;;;36.10;62.80;;;;;;5094944;28;20018;-77
2022/06/24 10:52:37;;;;;;;;;;;36.20;63.40;;;;;;5112290;28;19942;-77
2022/06/24 10:55:29;;;;;;;;;;;36.20;62.80;;;;;;5113105;28;19990;-80
2022/06/24 10:57:59;;;;;;;;;;;36.30;63.20;;;;;;5094578;28;19969;-77
2022/06/24 11:00:26;;;;;;;;;;;36.30;63.50;;;;;;5078607;28;19969;-77
2022/06/24 11:02:53;;;;;;;;;;;36.30;62.90;;;;;;5073630;28;20297;-77
2022/06/24 11:05:25;;;;;;;;;;;36.40;63.00;;;;;;5074478;28;19923;-77
2022/06/24 11:07:52;;;;;;;;;;;36.40;63.20;;;;;;5057988;28;19920;-77
2022/06/24 11:10:30;;;;;;;;;;;36.40;63.10;;;;;;5074329;28;19924;-77
2022/06/24 11:12:59;;;;;;;;;;;36.30;63.30;;;;;;5074318;28;20370;-79
2022/06/24 11:15:38;;;;;;;;;;;36.30;63.90;;;;;;5092528;28;19920;-76
2022/06/24 11:18:06;;;;;;;;;;;36.10;63.30;;;;;;5074342;28;20015;-77
2022/06/24 11:20:38;;;;;;;;;;;36.00;63.70;;;;;;5091499;28;19981;-78
2022/06/24 11:23:06;;;;;;;;;;;36.00;63.90;;;;;;5074245;28;19978;-76
2022/06/24 11:25:34;;;;;;;;;;;36.00;63.70;;;;;;5092418;28;19920;-77
2022/06/24 11:28:02;;;;;;;;;;;36.00;63.50;;;;;;5074497;28;19924;-77
2022/06/24 11:30:29;;;;;;;;;;;36.10;63.70;;;;;;5092292;28;20011;-76
2022/06/24 11:32:58;;;;;;;;;;;36.00;63.70;;;;;;5091822;28;19924;-77
2022/06/24 11:35:26;;;;;;;;;;;35.90;64.10;;;;;;5057721;28;19931;-77
2022/06/24 11:37:57;;;;;;;;;;;35.80;64.30;;;;;;5074145;28;19924;-77
2022/06/24 11:40:29;;;;;;;;;;;35.80;64.60;;;;;;5092236;28;19955;-77
2022/06/24 11:42:57;;;;;;;;;;;35.80;64.50;;;;;;5073676;28;20016;-76
2022/06/24 11:45:31;;;;;;;;;;;35.70;65.00;;;;;;5092204;28;19946;-77
2022/06/24 11:47:59;;;;;;;;;;;35.50;64.70;;;;;;5057017;28;20297;-78
2022/06/24 11:50:26;;;;;;;;;;;35.50;64.60;;;;;;5073121;28;19924;-77
2022/06/24 11:52:56;;;;;;;;;;;35.30;65.70;;;;;;5073205;28;19924;-77
2022/06/24 11:55:24;;;;;;;;;;;35.20;65.50;;;;;;5067536;28;19977;-77
2022/06/24 11:57:52;;;;;;;;;;;35.10;65.90;;;;;;5073054;28;19920;-77
2022/06/24 12:00:20;;;;;;;;;;;35.20;66.20;;;;;;5079270;28;19928;-79
2022/06/24 12:02:48;;;;;;;;;;;35.40;65.80;;;;;;5074012;28;19924;-77
2022/06/24 12:05:16;;;;;;;;;;;35.40;65.50;;;;;;5091906;28;19928;-77
2022/06/24 12:07:43;;;;;;;;;;;35.40;65.50;;;;;;5071309;28;19924;-79
2022/06/24 12:10:11;;;;;;;;;;;35.40;65.80;;;;;;5104959;28;19931;-76
2022/06/24 12:12:55;;;;;;;;;;;35.50;66.00;;;;;;5094023;28;19970;-77
2022/06/24 12:15:26;;;;;;;;;;;35.50;66.30;;;;;;5081650;28;19923;-76
2022/06/24 12:17:54;;;;;;;;;;;35.50;66.10;;;;;;5084439;28;19947;-77
2022/06/24 12:20:25;;;;;;;;;;;35.40;65.90;;;;;;5071082;28;19943;-78
2022/06/24 12:23:11;;;;;;;;;;;35.40;65.30;;;;;;5083537;28;20354;-77
2022/06/24 12:25:40;;;;;;;;;;;35.30;65.30;;;;;;5095702;28;19923;-79
2022/06/24 12:28:13;;;;;;;;;;;35.20;65.50;;;;;;5090838;28;19927;-77
2022/06/24 12:30:41;;;;;;;;;;;35.10;65.40;;;;;;5086291;28;19924;-77
2022/06/24 12:33:14;;;;;;;;;;;35.10;66.00;;;;;;5070711;28;20284;-77
2022/06/24 12:35:43;;;;;;;;;;;34.90;66.30;;;;;;5099725;28;19919;-77
2022/06/24 12:38:17;;;;;;;;;;;35.00;66.30;;;;;;5105641;28;19919;-77
2022/06/24 12:40:45;;;;;;;;;;;35.00;65.90;;;;;;5084834;28;19923;-77
2022/06/24 12:43:13;;;;;;;;;;;35.10;66.40;;;;;;5090750;28;19924;-77
2022/06/24 12:45:42;;;;;;;;;;;35.00;66.70;;;;;;5101958;28;19920;-76
2022/06/24 12:51:00;;;;;;;;;;;35.10;65.70;;;;;;5088909;28;19927;-78
2022/06/24 12:53:29;;;;;;;;;;;35.10;65.90;;;;;;5089562;28;19924;-79
2022/06/24 12:55:57;;;;;;;;;;;35.00;65.50;;;;;;5076388;28;19920;-78
2022/06/24 12:58:25;;;;;;;;;;;35.00;65.70;;;;;;5089563;28;20440;-77
2022/06/24 13:00:53;;;;;;;;;;;35.00;66.30;;;;;;5085306;28;19970;-77
2022/06/24 13:03:21;;;;;;;;;;;35.10;67.00;;;;;;5091698;28;19923;-77
2022/06/24 13:05:49;;;;;;;;;;;35.00;66.30;;;;;;5081358;28;20396;-78
2022/06/24 13:08:16;;;;;;;;;;;35.00;66.50;;;;;;5072636;28;19935;-77
2022/06/24 13:10:44;;;;;;;;;;;35.00;67.00;;;;;;5111859;28;20450;-77
2022/06/24 13:13:11;;;;;;;;;;;35.00;66.90;;;;;;5113087;28;20661;-76
2022/06/24 13:15:39;;;;;;;;;;;34.90;68.20;;;;;;5110842;28;20014;-78
2022/06/24 13:18:07;;;;;;;;;;;34.80;70.70;;;;;;5078910;28;19923;-78
2022/06/24 13:20:35;;;;;;;;;;;34.80;70.10;;;;;;5076673;28;20546;-78
2022/06/24 13:23:02;;;;;;;;;;;34.70;70.60;;;;;;5111202;28;19931;-79
2022/06/24 13:25:30;;;;;;;;;;;34.60;69.40;;;;;;5092289;28;19928;-77
2022/06/24 13:27:59;;;;;;;;;;;34.60;70.90;;;;;;5109828;28;20499;-77
2022/06/24 13:30:27;;;;;;;;;;;34.50;69.60;;;;;;5102627;28;19976;-78
2022/06/24 13:32:55;;;;;;;;;;;34.50;69.40;;;;;;5096578;28;20392;-78
2022/06/24 13:35:23;;;;;;;;;;;34.60;68.80;;;;;;5112951;28;20348;-78
2022/06/24 13:37:50;;;;;;;;;;;34.50;68.00;;;;;;5091867;28;20331;-79
2022/06/24 13:40:18;;;;;;;;;;;34.40;68.60;;;;;;5079091;28;20540;-78
2022/06/24 13:42:45;;;;;;;;;;;34.30;68.30;;;;;;5080011;28;20278;-78
2022/06/24 13:45:13;;;;;;;;;;;34.30;68.50;;;;;;5096725;28;19919;-77
2022/06/24 13:47:40;;;;;;;;;;;34.20;68.00;;;;;;5096627;28;19924;-77
2022/06/24 13:50:08;;;;;;;;;;;34.20;67.70;;;;;;5095392;28;19924;-78
2022/06/24 13:52:36;;;;;;;;;;;34.30;67.50;;;;;;5095183;28;19930;-79
2022/06/24 13:55:04;;;;;;;;;;;34.30;67.80;;;;;;5079543;28;19924;-78
2022/06/24 13:57:32;;;;;;;;;;;34.20;67.50;;;;;;5115633;28;19924;-78
2022/06/24 14:00:00;;;;;;;;;;;34.30;67.70;;;;;;5079322;28;20369;-78
2022/06/24 14:02:38;;;;;;;;;;;34.20;67.10;;;;;;5097718;28;19919;-78
2022/06/24 14:05:06;;;;;;;;;;;34.20;67.80;;;;;;5095620;28;19927;-78
2022/06/24 14:07:33;;;;;;;;;;;34.10;67.80;;;;;;5096140;28;20442;-76
2022/06/24 14:10:01;;;;;;;;;;;34.10;68.20;;;;;;5114021;28;19924;-77
2022/06/24 14:12:48;;;;;;;;;;;34.20;68.50;;;;;;5096029;28;19930;-78
2022/06/24 14:15:16;;;;;;;;;;;34.20;68.30;;;;;;5096069;28;19984;-77
2022/06/24 14:17:44;;;;;;;;;;;34.30;66.90;;;;;;5062972;28;20258;-76
2022/06/24 14:20:12;;;;;;;;;;;34.30;67.50;;;;;;5096125;28;19919;-77
2022/06/24 14:24:31;;;;;;;;;;;34.40;67.30;;;;;;5094406;28;20281;-78
2022/06/24 14:25:27;;;;;;;;;;;34.40;67.70;;;;;;5095735;28;19924;-77
2022/06/24 14:27:55;;;;;;;;;;;34.40;67.80;;;;;;5095517;28;20335;-78
2022/06/24 14:30:22;;;;;;;;;;;34.30;67.70;;;;;;5079071;28;19972;-79
2022/06/24 14:32:50;;;;;;;;;;;34.20;67.20;;;;;;5079269;28;19927;-79
2022/06/24 14:35:17;;;;;;;;;;;34.20;67.10;;;;;;5096603;28;19920;-77
2022/06/24 14:40:32;;;;;;;;;;;34.10;67.40;;;;;;5113343;28;20076;-78
2022/06/24 14:43:16;;;;;;;;;;;34.10;67.60;;;;;;5078895;28;19928;-77